sensor_id;sensor_type;location;lat;lon;timestamp;temperature;humidity
21646;DHT22;10984;45.712;4.800;2023-03-14T00:02:22;10.40;99.90
21646;DHT22;10984;45.712;4.800;2023-03-14T00:04:48;10.40;99.90
21646;DHT22;10984;45.712;4.800;2023-03-14T00:07:14;10.40;99.90
21646;DHT22;10984;45.712;4.800;2023-03-14T00:09:40;10.40;99.90
21646;DHT22;10984;45.712;4.800;2023-03-14T00:12:06;10.40;99.90
21646;DHT22;10984;45.712;4.800;2023-03-14T00:14:33;10.30;99.90
21646;DHT22;10984;45.712;4.800;2023-03-14T00:16:58;10.30;99.90
21646;DHT22;10984;45.712;4.800;2023-03-14T00:19:24;10.30;99.90
21646;DHT22;10984;45.712;4.800;2023-03-14T00:21:50;10.30;99.90
21646;DHT22;10984;45.712;4.800;2023-03-14T00:24:15;10.30;99.90
21646;DHT22;10984;45.712;4.800;2023-03-14T00:26:41;10.30;99.90
21646;DHT22;10984;45.712;4.800;2023-03-14T00:29:07;10.30;99.90
21646;DHT22;10984;45.712;4.800;2023-03-14T00:31:32;10.30;99.90
21646;DHT22;10984;45.712;4.800;2023-03-14T00:33:58;10.20;99.90
21646;DHT22;10984;45.712;4.800;2023-03-14T00:36:24;10.30;99.90
21646;DHT22;10984;45.712;4.800;2023-03-14T00:38:51;10.20;99.90
21646;DHT22;10984;45.712;4.800;2023-03-14T00:41:19;10.20;99.90
21646;DHT22;10984;45.712;4.800;2023-03-14T00:43:45;10.20;99.90
21646;DHT22;10984;45.712;4.800;2023-03-14T00:46:12;10.10;99.90
21646;DHT22;10984;45.712;4.800;2023-03-14T00:48:38;10.20;99.90
21646;DHT22;10984;45.712;4.800;2023-03-14T00:51:05;10.20;99.90
21646;DHT22;10984;45.712;4.800;2023-03-14T00:53:32;10.20;99.90
21646;DHT22;10984;45.712;4.800;2023-03-14T00:58:47;10.10;99.90
21646;DHT22;10984;45.712;4.800;2023-03-14T01:01:15;10.10;99.90
21646;DHT22;10984;45.712;4.800;2023-03-14T01:03:41;10.10;99.90
21646;DHT22;10984;45.712;4.800;2023-03-14T01:06:26;10.10;99.90
21646;DHT22;10984;45.712;4.800;2023-03-14T01:08:54;10.10;99.90
21646;DHT22;10984;45.712;4.800;2023-03-14T01:11:25;10.10;99.90
21646;DHT22;10984;45.712;4.800;2023-03-14T01:13:52;10.10;99.90
21646;DHT22;10984;45.712;4.800;2023-03-14T01:16:20;10.10;99.90
21646;DHT22;10984;45.712;4.800;2023-03-14T01:18:46;10.00;99.90
21646;DHT22;10984;45.712;4.800;2023-03-14T01:21:31;10.00;99.90
21646;DHT22;10984;45.712;4.800;2023-03-14T01:23:59;10.00;99.90
21646;DHT22;10984;45.712;4.800;2023-03-14T01:26:26;10.00;99.90
21646;DHT22;10984;45.712;4.800;2023-03-14T01:28:53;10.00;99.90
21646;DHT22;10984;45.712;4.800;2023-03-14T01:31:19;10.00;99.90
21646;DHT22;10984;45.712;4.800;2023-03-14T01:33:46;10.00;99.90
21646;DHT22;10984;45.712;4.800;2023-03-14T01:36:12;10.10;99.90
21646;DHT22;10984;45.712;4.800;2023-03-14T01:38:39;10.10;99.90
21646;DHT22;10984;45.712;4.800;2023-03-14T01:41:06;10.10;99.90
21646;DHT22;10984;45.712;4.800;2023-03-14T01:43:32;10.20;99.90
21646;DHT22;10984;45.712;4.800;2023-03-14T01:52:23;10.40;99.90
21646;DHT22;10984;45.712;4.800;2023-03-14T01:54:53;10.40;99.90
21646;DHT22;10984;45.712;4.800;2023-03-14T01:57:24;10.40;99.90
21646;DHT22;10984;45.712;4.800;2023-03-14T01:59:57;10.40;99.90
21646;DHT22;10984;45.712;4.800;2023-03-14T02:02:24;10.40;99.90
21646;DHT22;10984;45.712;4.800;2023-03-14T02:04:52;10.40;99.90
21646;DHT22;10984;45.712;4.800;2023-03-14T02:07:39;10.40;99.90
21646;DHT22;10984;45.712;4.800;2023-03-14T02:10:07;10.40;99.90
21646;DHT22;10984;45.712;4.800;2023-03-14T02:12:36;10.40;99.90
21646;DHT22;10984;45.712;4.800;2023-03-14T02:15:03;10.40;99.90
21646;DHT22;10984;45.712;4.800;2023-03-14T02:17:29;10.40;99.90
21646;DHT22;10984;45.712;4.800;2023-03-14T02:22:41;10.40;99.90
21646;DHT22;10984;45.712;4.800;2023-03-14T02:27:52;10.50;99.90
21646;DHT22;10984;45.712;4.800;2023-03-14T02:30:21;10.50;99.90
21646;DHT22;10984;45.712;4.800;2023-03-14T02:32:50;10.50;99.90
21646;DHT22;10984;45.712;4.800;2023-03-14T02:35:38;10.40;99.90
21646;DHT22;10984;45.712;4.800;2023-03-14T02:40:49;10.20;99.90
21646;DHT22;10984;45.712;4.800;2023-03-14T02:43:15;10.10;99.90
21646;DHT22;10984;45.712;4.800;2023-03-14T02:46:00;10.00;99.90
21646;DHT22;10984;45.712;4.800;2023-03-14T02:48:30;9.90;99.90
21646;DHT22;10984;45.712;4.800;2023-03-14T02:50:58;9.90;99.90
21646;DHT22;10984;45.712;4.800;2023-03-14T02:53:43;9.90;99.90
21646;DHT22;10984;45.712;4.800;2023-03-14T02:56:10;9.80;99.90
21646;DHT22;10984;45.712;4.800;2023-03-14T02:58:36;9.80;99.90
21646;DHT22;10984;45.712;4.800;2023-03-14T03:01:02;9.90;99.90
21646;DHT22;10984;45.712;4.800;2023-03-14T03:03:28;9.90;99.90
21646;DHT22;10984;45.712;4.800;2023-03-14T03:05:55;9.90;99.90
21646;DHT22;10984;45.712;4.800;2023-03-14T03:08:22;9.90;99.90
21646;DHT22;10984;45.712;4.800;2023-03-14T03:10:49;9.90;99.90
21646;DHT22;10984;45.712;4.800;2023-03-14T03:13:15;9.90;99.90
21646;DHT22;10984;45.712;4.800;2023-03-14T03:15:41;10.00;99.90
21646;DHT22;10984;45.712;4.800;2023-03-14T03:18:07;10.00;99.90
21646;DHT22;10984;45.712;4.800;2023-03-14T03:20:32;10.00;99.90
21646;DHT22;10984;45.712;4.800;2023-03-14T03:22:59;10.00;99.90
21646;DHT22;10984;45.712;4.800;2023-03-14T03:25:25;10.00;99.90
21646;DHT22;10984;45.712;4.800;2023-03-14T03:27:51;10.10;99.90
21646;DHT22;10984;45.712;4.800;2023-03-14T03:30:17;10.10;99.90
21646;DHT22;10984;45.712;4.800;2023-03-14T03:32:43;10.10;99.90
21646;DHT22;10984;45.712;4.800;2023-03-14T03:35:09;10.20;99.90
21646;DHT22;10984;45.712;4.800;2023-03-14T03:37:35;10.20;99.90
21646;DHT22;10984;45.712;4.800;2023-03-14T03:40:00;10.20;99.90
21646;DHT22;10984;45.712;4.800;2023-03-14T03:42:27;10.20;99.90
21646;DHT22;10984;45.712;4.800;2023-03-14T03:44:52;10.20;99.90
21646;DHT22;10984;45.712;4.800;2023-03-14T03:47:18;10.30;99.90
21646;DHT22;10984;45.712;4.800;2023-03-14T03:49:44;10.20;99.90
21646;DHT22;10984;45.712;4.800;2023-03-14T03:52:09;10.20;99.90
21646;DHT22;10984;45.712;4.800;2023-03-14T03:54:35;10.30;99.90
21646;DHT22;10984;45.712;4.800;2023-03-14T03:57:01;10.30;99.90
21646;DHT22;10984;45.712;4.800;2023-03-14T03:59:27;10.20;99.90
21646;DHT22;10984;45.712;4.800;2023-03-14T04:01:52;10.20;99.90
21646;DHT22;10984;45.712;4.800;2023-03-14T04:04:18;10.20;99.90
21646;DHT22;10984;45.712;4.800;2023-03-14T04:06:44;10.20;99.90
21646;DHT22;10984;45.712;4.800;2023-03-14T04:09:10;10.20;99.90
21646;DHT22;10984;45.712;4.800;2023-03-14T04:11:36;10.20;99.90
21646;DHT22;10984;45.712;4.800;2023-03-14T04:14:03;10.10;99.90
21646;DHT22;10984;45.712;4.800;2023-03-14T04:16:29;10.10;99.90
21646;DHT22;10984;45.712;4.800;2023-03-14T04:18:57;10.20;99.90
21646;DHT22;10984;45.712;4.800;2023-03-14T04:21:22;10.20;99.90
21646;DHT22;10984;45.712;4.800;2023-03-14T04:23:48;10.20;99.90
21646;DHT22;10984;45.712;4.800;2023-03-14T04:26:14;10.20;99.90
21646;DHT22;10984;45.712;4.800;2023-03-14T04:28:40;10.10;99.90
21646;DHT22;10984;45.712;4.800;2023-03-14T04:31:24;10.00;99.90
21646;DHT22;10984;45.712;4.800;2023-03-14T04:33:49;10.00;99.90
21646;DHT22;10984;45.712;4.800;2023-03-14T04:36:15;9.90;99.90
21646;DHT22;10984;45.712;4.800;2023-03-14T04:38:41;9.90;99.90
21646;DHT22;10984;45.712;4.800;2023-03-14T04:41:07;9.90;99.90
21646;DHT22;10984;45.712;4.800;2023-03-14T04:43:32;9.70;99.90
21646;DHT22;10984;45.712;4.800;2023-03-14T04:45:58;9.70;99.90
21646;DHT22;10984;45.712;4.800;2023-03-14T04:48:25;9.70;99.90
21646;DHT22;10984;45.712;4.800;2023-03-14T04:50:51;9.70;99.90
21646;DHT22;10984;45.712;4.800;2023-03-14T04:53:17;9.70;99.90
21646;DHT22;10984;45.712;4.800;2023-03-14T04:56:02;9.70;99.90
21646;DHT22;10984;45.712;4.800;2023-03-14T04:58:28;9.70;99.90
21646;DHT22;10984;45.712;4.800;2023-03-14T05:00:54;9.70;99.90
21646;DHT22;10984;45.712;4.800;2023-03-14T05:03:19;9.70;99.90
21646;DHT22;10984;45.712;4.800;2023-03-14T05:05:46;9.70;99.90
21646;DHT22;10984;45.712;4.800;2023-03-14T05:08:12;9.80;99.90
21646;DHT22;10984;45.712;4.800;2023-03-14T05:10:37;9.80;99.90
21646;DHT22;10984;45.712;4.800;2023-03-14T05:13:03;9.80;99.90
21646;DHT22;10984;45.712;4.800;2023-03-14T05:15:29;9.80;99.90
21646;DHT22;10984;45.712;4.800;2023-03-14T05:17:54;9.80;99.90
21646;DHT22;10984;45.712;4.800;2023-03-14T05:20:20;9.70;99.90
21646;DHT22;10984;45.712;4.800;2023-03-14T05:22:46;9.70;99.90
21646;DHT22;10984;45.712;4.800;2023-03-14T05:25:12;9.70;99.90
21646;DHT22;10984;45.712;4.800;2023-03-14T05:27:38;9.70;99.90
21646;DHT22;10984;45.712;4.800;2023-03-14T05:30:05;9.80;99.90
21646;DHT22;10984;45.712;4.800;2023-03-14T05:32:31;9.80;99.90
21646;DHT22;10984;45.712;4.800;2023-03-14T05:34:56;9.80;99.90
21646;DHT22;10984;45.712;4.800;2023-03-14T05:37:25;9.80;99.90
21646;DHT22;10984;45.712;4.800;2023-03-14T05:39:51;9.80;99.90
21646;DHT22;10984;45.712;4.800;2023-03-14T05:42:17;9.80;99.90
21646;DHT22;10984;45.712;4.800;2023-03-14T05:44:43;9.80;99.90
21646;DHT22;10984;45.712;4.800;2023-03-14T05:47:09;9.80;99.90
21646;DHT22;10984;45.712;4.800;2023-03-14T05:49:34;9.80;99.90
21646;DHT22;10984;45.712;4.800;2023-03-14T05:52:00;9.90;99.90
21646;DHT22;10984;45.712;4.800;2023-03-14T05:54:25;9.90;99.90
21646;DHT22;10984;45.712;4.800;2023-03-14T05:56:51;9.90;99.90
21646;DHT22;10984;45.712;4.800;2023-03-14T05:59:17;10.00;99.90
21646;DHT22;10984;45.712;4.800;2023-03-14T06:01:42;10.00;99.90
21646;DHT22;10984;45.712;4.800;2023-03-14T06:04:08;10.00;99.90
21646;DHT22;10984;45.712;4.800;2023-03-14T06:06:33;10.00;99.90
21646;DHT22;10984;45.712;4.800;2023-03-14T06:08:59;10.00;99.90
21646;DHT22;10984;45.712;4.800;2023-03-14T06:11:25;10.00;99.90
21646;DHT22;10984;45.712;4.800;2023-03-14T06:13:51;10.10;99.90
21646;DHT22;10984;45.712;4.800;2023-03-14T06:16:16;10.10;99.90
21646;DHT22;10984;45.712;4.800;2023-03-14T06:18:42;10.20;99.90
21646;DHT22;10984;45.712;4.800;2023-03-14T06:21:08;10.20;99.90
21646;DHT22;10984;45.712;4.800;2023-03-14T06:23:34;10.20;99.90
21646;DHT22;10984;45.712;4.800;2023-03-14T06:26:00;10.20;99.90
21646;DHT22;10984;45.712;4.800;2023-03-14T06:28:26;10.20;99.90
21646;DHT22;10984;45.712;4.800;2023-03-14T06:30:51;10.20;99.90
21646;DHT22;10984;45.712;4.800;2023-03-14T06:33:17;10.20;99.90
21646;DHT22;10984;45.712;4.800;2023-03-14T06:35:43;10.20;99.90
21646;DHT22;10984;45.712;4.800;2023-03-14T06:38:08;10.20;99.90
21646;DHT22;10984;45.712;4.800;2023-03-14T06:40:34;10.20;99.90
21646;DHT22;10984;45.712;4.800;2023-03-14T06:43:00;10.30;99.90
21646;DHT22;10984;45.712;4.800;2023-03-14T06:45:25;10.30;99.90
21646;DHT22;10984;45.712;4.800;2023-03-14T06:47:51;10.40;99.90
21646;DHT22;10984;45.712;4.800;2023-03-14T06:50:16;10.40;99.90
21646;DHT22;10984;45.712;4.800;2023-03-14T06:52:42;10.40;99.90
21646;DHT22;10984;45.712;4.800;2023-03-14T06:55:13;10.40;99.90
21646;DHT22;10984;45.712;4.800;2023-03-14T06:57:39;10.40;99.90
21646;DHT22;10984;45.712;4.800;2023-03-14T07:00:05;10.40;99.90
21646;DHT22;10984;45.712;4.800;2023-03-14T07:02:31;10.40;99.90
21646;DHT22;10984;45.712;4.800;2023-03-14T07:04:56;10.30;99.90
21646;DHT22;10984;45.712;4.800;2023-03-14T07:07:22;10.20;99.90
21646;DHT22;10984;45.712;4.800;2023-03-14T07:09:48;10.20;99.90
21646;DHT22;10984;45.712;4.800;2023-03-14T07:12:13;10.20;99.90
21646;DHT22;10984;45.712;4.800;2023-03-14T07:14:39;10.20;99.90
21646;DHT22;10984;45.712;4.800;2023-03-14T07:17:05;10.20;99.90
21646;DHT22;10984;45.712;4.800;2023-03-14T07:19:30;10.10;99.90
21646;DHT22;10984;45.712;4.800;2023-03-14T07:21:56;10.10;99.90
21646;DHT22;10984;45.712;4.800;2023-03-14T07:24:22;10.10;99.90
21646;DHT22;10984;45.712;4.800;2023-03-14T07:26:48;10.20;99.90
21646;DHT22;10984;45.712;4.800;2023-03-14T07:29:13;10.20;99.90
21646;DHT22;10984;45.712;4.800;2023-03-14T07:31:39;10.20;99.90
21646;DHT22;10984;45.712;4.800;2023-03-14T07:34:05;10.30;99.90
21646;DHT22;10984;45.712;4.800;2023-03-14T07:36:30;10.40;99.90
21646;DHT22;10984;45.712;4.800;2023-03-14T07:38:56;10.60;99.90
21646;DHT22;10984;45.712;4.800;2023-03-14T07:41:22;10.60;99.90
21646;DHT22;10984;45.712;4.800;2023-03-14T07:43:48;10.70;99.90
21646;DHT22;10984;45.712;4.800;2023-03-14T07:46:14;10.80;99.90
21646;DHT22;10984;45.712;4.800;2023-03-14T07:48:40;10.90;99.90
21646;DHT22;10984;45.712;4.800;2023-03-14T07:51:06;11.10;99.90
21646;DHT22;10984;45.712;4.800;2023-03-14T07:53:32;11.20;99.90
21646;DHT22;10984;45.712;4.800;2023-03-14T07:55:57;11.30;99.90
21646;DHT22;10984;45.712;4.800;2023-03-14T07:58:23;11.40;99.90
21646;DHT22;10984;45.712;4.800;2023-03-14T08:00:50;11.40;99.90
21646;DHT22;10984;45.712;4.800;2023-03-14T08:03:15;11.50;99.90
21646;DHT22;10984;45.712;4.800;2023-03-14T08:05:42;11.50;99.90
21646;DHT22;10984;45.712;4.800;2023-03-14T08:08:08;11.30;99.90
21646;DHT22;10984;45.712;4.800;2023-03-14T08:10:33;11.30;99.90
21646;DHT22;10984;45.712;4.800;2023-03-14T08:13:00;11.30;99.90
21646;DHT22;10984;45.712;4.800;2023-03-14T08:15:27;11.30;99.90
21646;DHT22;10984;45.712;4.800;2023-03-14T08:17:53;11.40;99.90
21646;DHT22;10984;45.712;4.800;2023-03-14T08:20:38;11.50;99.90
21646;DHT22;10984;45.712;4.800;2023-03-14T08:23:04;11.60;99.90
21646;DHT22;10984;45.712;4.800;2023-03-14T08:25:30;11.60;99.90
21646;DHT22;10984;45.712;4.800;2023-03-14T08:27:56;11.50;99.90
21646;DHT22;10984;45.712;4.800;2023-03-14T08:30:22;11.60;99.90
21646;DHT22;10984;45.712;4.800;2023-03-14T08:32:48;11.80;99.90
21646;DHT22;10984;45.712;4.800;2023-03-14T08:35:14;11.80;99.90
21646;DHT22;10984;45.712;4.800;2023-03-14T08:37:40;11.80;99.90
21646;DHT22;10984;45.712;4.800;2023-03-14T08:40:07;11.90;99.90
21646;DHT22;10984;45.712;4.800;2023-03-14T08:42:36;12.00;99.90
21646;DHT22;10984;45.712;4.800;2023-03-14T08:45:01;11.90;99.90
21646;DHT22;10984;45.712;4.800;2023-03-14T08:47:27;11.90;99.90
21646;DHT22;10984;45.712;4.800;2023-03-14T08:49:53;12.00;99.90
21646;DHT22;10984;45.712;4.800;2023-03-14T08:52:18;12.00;99.90
21646;DHT22;10984;45.712;4.800;2023-03-14T08:54:44;12.10;99.90
21646;DHT22;10984;45.712;4.800;2023-03-14T08:57:10;12.10;99.90
21646;DHT22;10984;45.712;4.800;2023-03-14T08:59:36;12.20;99.90
21646;DHT22;10984;45.712;4.800;2023-03-14T09:02:02;12.10;99.90
21646;DHT22;10984;45.712;4.800;2023-03-14T09:04:47;12.20;99.90
21646;DHT22;10984;45.712;4.800;2023-03-14T09:07:12;12.20;99.90
21646;DHT22;10984;45.712;4.800;2023-03-14T09:09:38;12.40;99.90
21646;DHT22;10984;45.712;4.800;2023-03-14T09:12:04;12.50;99.90
21646;DHT22;10984;45.712;4.800;2023-03-14T09:14:30;12.60;99.90
21646;DHT22;10984;45.712;4.800;2023-03-14T09:16:57;12.80;99.90
21646;DHT22;10984;45.712;4.800;2023-03-14T09:19:23;12.80;99.90
21646;DHT22;10984;45.712;4.800;2023-03-14T09:21:49;13.00;99.90
21646;DHT22;10984;45.712;4.800;2023-03-14T09:24:15;13.00;99.90
21646;DHT22;10984;45.712;4.800;2023-03-14T09:26:40;13.00;99.90
21646;DHT22;10984;45.712;4.800;2023-03-14T09:29:06;13.00;99.90
21646;DHT22;10984;45.712;4.800;2023-03-14T09:31:32;13.00;99.90
21646;DHT22;10984;45.712;4.800;2023-03-14T09:33:57;12.90;99.90
21646;DHT22;10984;45.712;4.800;2023-03-14T09:36:23;12.70;99.90
21646;DHT22;10984;45.712;4.800;2023-03-14T09:38:49;12.80;99.90
21646;DHT22;10984;45.712;4.800;2023-03-14T09:41:34;12.80;99.90
21646;DHT22;10984;45.712;4.800;2023-03-14T09:47:06;13.00;99.90
21646;DHT22;10984;45.712;4.800;2023-03-14T09:49:34;13.40;99.90
21646;DHT22;10984;45.712;4.800;2023-03-14T09:52:02;13.70;99.90
21646;DHT22;10984;45.712;4.800;2023-03-14T09:57:34;13.60;99.90
21646;DHT22;10984;45.712;4.800;2023-03-14T10:00:06;13.50;99.90
21646;DHT22;10984;45.712;4.800;2023-03-14T10:02:40;13.30;99.90
21646;DHT22;10984;45.712;4.800;2023-03-14T10:05:25;13.30;99.90
21646;DHT22;10984;45.712;4.800;2023-03-14T10:07:54;13.20;99.90
21646;DHT22;10984;45.712;4.800;2023-03-14T10:10:22;13.30;99.90
21646;DHT22;10984;45.712;4.800;2023-03-14T10:12:59;13.10;99.90
21646;DHT22;10984;45.712;4.800;2023-03-14T10:15:47;12.90;99.90
21646;DHT22;10984;45.712;4.800;2023-03-14T10:18:13;13.00;99.90
21646;DHT22;10984;45.712;4.800;2023-03-14T10:23:43;12.70;99.90
21646;DHT22;10984;45.712;4.800;2023-03-14T10:26:15;12.60;99.90
21646;DHT22;10984;45.712;4.800;2023-03-14T10:37:51;12.90;99.90
21646;DHT22;10984;45.712;4.800;2023-03-14T10:40:18;12.90;99.90
21646;DHT22;10984;45.712;4.800;2023-03-14T10:42:44;12.70;99.90
21646;DHT22;10984;45.712;4.800;2023-03-14T10:45:35;12.60;99.90
21646;DHT22;10984;45.712;4.800;2023-03-14T10:51:29;12.60;99.90
21646;DHT22;10984;45.712;4.800;2023-03-14T10:54:15;13.00;99.90
21646;DHT22;10984;45.712;4.800;2023-03-14T10:56:44;13.10;99.90
21646;DHT22;10984;45.712;4.800;2023-03-14T10:59:29;13.30;99.90
21646;DHT22;10984;45.712;4.800;2023-03-14T11:05:12;13.90;99.90
21646;DHT22;10984;45.712;4.800;2023-03-14T11:07:42;14.10;99.90
21646;DHT22;10984;45.712;4.800;2023-03-14T11:36:51;12.50;99.90
21646;DHT22;10984;45.712;4.800;2023-03-14T11:39:19;12.10;99.90
21646;DHT22;10984;45.712;4.800;2023-03-14T11:42:03;12.10;99.90
21646;DHT22;10984;45.712;4.800;2023-03-14T11:44:32;12.40;99.90
21646;DHT22;10984;45.712;4.800;2023-03-14T11:47:05;12.50;99.90
21646;DHT22;10984;45.712;4.800;2023-03-14T11:49:34;12.60;99.90
21646;DHT22;10984;45.712;4.800;2023-03-14T11:52:13;12.70;99.90
21646;DHT22;10984;45.712;4.800;2023-03-14T11:57:46;12.80;99.90
21646;DHT22;10984;45.712;4.800;2023-03-14T12:00:30;13.00;99.90
21646;DHT22;10984;45.712;4.800;2023-03-14T12:20:18;14.50;99.90
21646;DHT22;10984;45.712;4.800;2023-03-14T12:23:04;14.70;99.90
21646;DHT22;10984;45.712;4.800;2023-03-14T12:25:32;14.90;99.90
21646;DHT22;10984;45.712;4.800;2023-03-14T12:30:43;14.90;99.90
21646;DHT22;10984;45.712;4.800;2023-03-14T12:47:52;13.60;99.90
21646;DHT22;10984;45.712;4.800;2023-03-14T13:05:16;14.00;99.90
21646;DHT22;10984;45.712;4.800;2023-03-14T13:15:57;13.40;99.90
21646;DHT22;10984;45.712;4.800;2023-03-14T13:21:28;12.10;99.90
21646;DHT22;10984;45.712;4.800;2023-03-14T13:27:02;12.20;99.90
21646;DHT22;10984;45.712;4.800;2023-03-14T13:32:19;12.60;99.90
21646;DHT22;10984;45.712;4.800;2023-03-14T13:34:45;12.60;99.90
21646;DHT22;10984;45.712;4.800;2023-03-14T13:37:31;12.70;99.90
21646;DHT22;10984;45.712;4.800;2023-03-14T13:40:05;12.70;99.90
21646;DHT22;10984;45.712;4.800;2023-03-14T13:42:42;12.70;99.90
21646;DHT22;10984;45.712;4.800;2023-03-14T13:45:13;12.70;99.90
21646;DHT22;10984;45.712;4.800;2023-03-14T13:47:39;12.80;99.90
21646;DHT22;10984;45.712;4.800;2023-03-14T13:50:14;12.70;99.90
21646;DHT22;10984;45.712;4.800;2023-03-14T13:52:40;12.80;99.90
21646;DHT22;10984;45.712;4.800;2023-03-14T13:55:14;12.90;99.90
21646;DHT22;10984;45.712;4.800;2023-03-14T13:57:58;13.00;99.90
21646;DHT22;10984;45.712;4.800;2023-03-14T14:00:26;13.10;99.90
21646;DHT22;10984;45.712;4.800;2023-03-14T14:03:11;12.90;99.90
21646;DHT22;10984;45.712;4.800;2023-03-14T14:05:36;12.90;99.90
21646;DHT22;10984;45.712;4.800;2023-03-14T14:08:05;12.90;99.90
21646;DHT22;10984;45.712;4.800;2023-03-14T14:10:32;12.90;99.90
21646;DHT22;10984;45.712;4.800;2023-03-14T14:13:16;12.80;99.90
21646;DHT22;10984;45.712;4.800;2023-03-14T14:15:46;12.70;99.90
21646;DHT22;10984;45.712;4.800;2023-03-14T14:18:16;12.60;99.90
21646;DHT22;10984;45.712;4.800;2023-03-14T14:20:45;12.60;99.90
21646;DHT22;10984;45.712;4.800;2023-03-14T14:23:14;12.60;99.90
21646;DHT22;10984;45.712;4.800;2023-03-14T14:25:42;12.50;99.90
21646;DHT22;10984;45.712;4.800;2023-03-14T14:31:29;12.40;99.90
21646;DHT22;10984;45.712;4.800;2023-03-14T14:36:58;12.50;99.90
21646;DHT22;10984;45.712;4.800;2023-03-14T14:39:25;12.50;99.90
21646;DHT22;10984;45.712;4.800;2023-03-14T14:41:52;12.60;99.90
21646;DHT22;10984;45.712;4.800;2023-03-14T14:44:37;12.80;99.90
21646;DHT22;10984;45.712;4.800;2023-03-14T14:47:03;12.80;99.90
21646;DHT22;10984;45.712;4.800;2023-03-14T14:49:31;13.00;99.90
21646;DHT22;10984;45.712;4.800;2023-03-14T14:52:20;13.10;99.90
21646;DHT22;10984;45.712;4.800;2023-03-14T14:54:51;13.00;99.90
21646;DHT22;10984;45.712;4.800;2023-03-14T14:57:23;13.00;99.90
21646;DHT22;10984;45.712;4.800;2023-03-14T14:59:50;13.00;99.90
21646;DHT22;10984;45.712;4.800;2023-03-14T15:05:22;12.90;99.90
21646;DHT22;10984;45.712;4.800;2023-03-14T15:07:49;12.80;99.90
21646;DHT22;10984;45.712;4.800;2023-03-14T15:10:33;12.80;99.90
21646;DHT22;10984;45.712;4.800;2023-03-14T15:12:58;12.70;99.90
21646;DHT22;10984;45.712;4.800;2023-03-14T15:15:25;12.70;99.90
21646;DHT22;10984;45.712;4.800;2023-03-14T15:17:50;12.70;99.90
21646;DHT22;10984;45.712;4.800;2023-03-14T15:20:17;12.60;99.90
21646;DHT22;10984;45.712;4.800;2023-03-14T15:22:43;12.50;99.90
21646;DHT22;10984;45.712;4.800;2023-03-14T15:25:10;12.50;99.90
21646;DHT22;10984;45.712;4.800;2023-03-14T15:27:36;12.50;99.90
21646;DHT22;10984;45.712;4.800;2023-03-14T15:30:05;12.50;99.90
21646;DHT22;10984;45.712;4.800;2023-03-14T15:32:31;12.50;99.90
21646;DHT22;10984;45.712;4.800;2023-03-14T15:34:57;12.60;99.90
21646;DHT22;10984;45.712;4.800;2023-03-14T15:37:23;12.50;99.90
21646;DHT22;10984;45.712;4.800;2023-03-14T15:39:49;12.50;99.90
21646;DHT22;10984;45.712;4.800;2023-03-14T15:42:15;12.50;99.90
21646;DHT22;10984;45.712;4.800;2023-03-14T15:44:40;12.40;99.90
21646;DHT22;10984;45.712;4.800;2023-03-14T15:47:08;12.30;99.90
21646;DHT22;10984;45.712;4.800;2023-03-14T15:49:34;12.30;99.90
21646;DHT22;10984;45.712;4.800;2023-03-14T15:52:00;12.30;99.90
21646;DHT22;10984;45.712;4.800;2023-03-14T15:54:25;12.30;99.90
21646;DHT22;10984;45.712;4.800;2023-03-14T15:56:57;12.30;99.90
21646;DHT22;10984;45.712;4.800;2023-03-14T15:59:23;12.30;99.90
21646;DHT22;10984;45.712;4.800;2023-03-14T16:01:49;12.20;99.90
21646;DHT22;10984;45.712;4.800;2023-03-14T16:04:15;12.20;99.90
21646;DHT22;10984;45.712;4.800;2023-03-14T16:06:41;12.10;99.90
21646;DHT22;10984;45.712;4.800;2023-03-14T16:09:09;12.10;99.90
21646;DHT22;10984;45.712;4.800;2023-03-14T16:11:35;12.00;99.90
21646;DHT22;10984;45.712;4.800;2023-03-14T16:14:01;12.00;99.90
21646;DHT22;10984;45.712;4.800;2023-03-14T16:16:26;12.00;99.90
21646;DHT22;10984;45.712;4.800;2023-03-14T16:18:52;12.00;99.90
21646;DHT22;10984;45.712;4.800;2023-03-14T16:21:19;12.00;99.90
21646;DHT22;10984;45.712;4.800;2023-03-14T16:23:45;12.00;99.90
21646;DHT22;10984;45.712;4.800;2023-03-14T16:26:14;12.00;99.90
21646;DHT22;10984;45.712;4.800;2023-03-14T16:28:41;12.00;99.90
21646;DHT22;10984;45.712;4.800;2023-03-14T16:31:10;11.90;99.90
21646;DHT22;10984;45.712;4.800;2023-03-14T16:33:37;11.90;99.90
21646;DHT22;10984;45.712;4.800;2023-03-14T16:36:04;11.80;99.90
21646;DHT22;10984;45.712;4.800;2023-03-14T16:38:33;11.70;99.90
21646;DHT22;10984;45.712;4.800;2023-03-14T16:43:45;11.70;99.90
21646;DHT22;10984;45.712;4.800;2023-03-14T16:46:15;11.60;99.90
21646;DHT22;10984;45.712;4.800;2023-03-14T16:48:41;11.50;99.90
21646;DHT22;10984;45.712;4.800;2023-03-14T16:51:07;11.60;99.90
21646;DHT22;10984;45.712;4.800;2023-03-14T16:53:34;11.50;99.90
21646;DHT22;10984;45.712;4.800;2023-03-14T16:55:59;11.60;99.90
21646;DHT22;10984;45.712;4.800;2023-03-14T16:58:25;11.50;99.90
21646;DHT22;10984;45.712;4.800;2023-03-14T17:00:51;11.40;99.90
21646;DHT22;10984;45.712;4.800;2023-03-14T17:03:17;11.30;99.90
21646;DHT22;10984;45.712;4.800;2023-03-14T17:06:02;11.30;99.90
21646;DHT22;10984;45.712;4.800;2023-03-14T17:08:28;11.20;99.90
21646;DHT22;10984;45.712;4.800;2023-03-14T17:10:54;11.10;99.90
21646;DHT22;10984;45.712;4.800;2023-03-14T17:13:20;11.00;99.90
21646;DHT22;10984;45.712;4.800;2023-03-14T17:15:53;10.90;99.90
21646;DHT22;10984;45.712;4.800;2023-03-14T17:18:18;10.90;99.90
21646;DHT22;10984;45.712;4.800;2023-03-14T17:20:44;10.80;99.90
21646;DHT22;10984;45.712;4.800;2023-03-14T17:23:10;10.70;99.90
21646;DHT22;10984;45.712;4.800;2023-03-14T17:25:36;10.60;99.90
21646;DHT22;10984;45.712;4.800;2023-03-14T17:28:02;10.50;99.90
21646;DHT22;10984;45.712;4.800;2023-03-14T17:30:28;10.30;99.90
21646;DHT22;10984;45.712;4.800;2023-03-14T17:32:54;10.30;99.90
21646;DHT22;10984;45.712;4.800;2023-03-14T17:35:19;10.30;99.90
21646;DHT22;10984;45.712;4.800;2023-03-14T17:37:45;10.30;99.90
21646;DHT22;10984;45.712;4.800;2023-03-14T17:40:11;10.30;99.90
21646;DHT22;10984;45.712;4.800;2023-03-14T17:42:37;10.30;99.90
21646;DHT22;10984;45.712;4.800;2023-03-14T17:45:02;10.30;99.90
21646;DHT22;10984;45.712;4.800;2023-03-14T17:47:28;10.20;99.90
21646;DHT22;10984;45.712;4.800;2023-03-14T17:49:54;10.10;99.90
21646;DHT22;10984;45.712;4.800;2023-03-14T17:52:19;10.00;99.90
21646;DHT22;10984;45.712;4.800;2023-03-14T17:54:45;10.00;99.90
21646;DHT22;10984;45.712;4.800;2023-03-14T17:57:11;9.80;99.90
21646;DHT22;10984;45.712;4.800;2023-03-14T17:59:36;9.70;99.90
21646;DHT22;10984;45.712;4.800;2023-03-14T18:02:02;9.50;99.90
21646;DHT22;10984;45.712;4.800;2023-03-14T18:04:28;9.30;99.90
21646;DHT22;10984;45.712;4.800;2023-03-14T18:06:53;9.10;99.90
21646;DHT22;10984;45.712;4.800;2023-03-14T18:09:19;9.10;99.90